createdAt,value
2018-09-12T00:02:03.627Z,4.28
2018-09-12T00:04:33.499Z,3.27
2018-09-12T00:07:03.348Z,5.87
2018-09-12T00:09:33.650Z,5.62
2018-09-12T00:12:03.730Z,3.55
2018-09-12T03:04:14.996Z,8.60
2018-09-12T03:06:46.973Z,8.40
2018-09-12T03:09:17.233Z,6.47
2018-09-12T03:11:47.245Z,10.45
2018-09-12T03:14:18.777Z,8.63
2018-09-12T03:20:28.459Z,7.40
2018-09-12T03:38:15.605Z,7.28
2018-09-12T03:41:14.496Z,4.42
2018-09-12T03:47:22.410Z,8.18
2018-09-12T04:01:47.124Z,9.43
2018-09-12T04:07:35.279Z,12.58
2018-09-12T04:13:31.219Z,8.80
2018-09-12T04:16:11.347Z,7.12
2018-09-12T04:25:14.988Z,12.90
2018-09-12T04:31:50.644Z,9.65
2018-09-12T05:09:33.220Z,16.42
2018-09-12T05:12:04.494Z,18.70
2018-09-12T05:14:36.326Z,16.12
2018-09-12T05:17:06.533Z,20.45
2018-09-12T05:19:39.018Z,17.57
2018-09-12T05:22:10.811Z,19.73
2018-09-12T05:24:41.412Z,19.42
2018-09-12T05:27:13.743Z,20.15
2018-09-12T05:29:43.929Z,19.23
2018-09-12T05:39:42.180Z,22.93
2018-09-12T05:45:23.634Z,22.65
2018-09-12T05:47:54.675Z,17.32
2018-09-12T05:50:25.832Z,22.87
2018-09-12T05:52:57.787Z,18.00
2018-09-12T05:55:28.524Z,15.98
2018-09-12T05:57:58.555Z,19.77
2018-09-12T06:00:34.796Z,14.38
2018-09-12T06:03:05.621Z,17.73
2018-09-12T06:05:36.813Z,12.58
2018-09-12T06:08:08.066Z,11.10
2018-09-12T06:10:38.232Z,14.83
2018-09-12T06:13:10.049Z,16.30
2018-09-12T06:15:41.204Z,16.20
2018-09-12T06:18:11.276Z,12.18
2018-09-12T06:20:43.830Z,14.45
2018-09-12T06:23:14.776Z,14.63
2018-09-12T06:25:44.687Z,16.07
2018-09-12T06:28:14.637Z,10.15
2018-09-12T06:30:45.791Z,13.13
2018-09-12T06:33:17.051Z,10.40
2018-09-12T06:35:47.536Z,13.65
2018-09-12T06:38:18.932Z,12.37
2018-09-12T06:40:51.639Z,17.20
2018-09-12T06:43:23.249Z,9.35
2018-09-12T06:45:54.578Z,12.98
2018-09-12T06:48:27.506Z,11.18
2018-09-12T06:50:57.947Z,13.50
2018-09-12T06:53:28.740Z,8.45
2018-09-12T07:12:51.301Z,11.78
2018-09-12T07:15:23.305Z,10.93
2018-09-12T07:17:53.558Z,9.33
2018-09-12T07:20:24.026Z,13.72
2018-09-12T07:22:56.401Z,5.05
2018-09-12T07:25:28.280Z,8.13
2018-09-12T07:27:59.597Z,11.63
2018-09-12T07:30:29.604Z,7.67
2018-09-12T07:33:03.948Z,10.58
2018-09-12T07:35:34.412Z,7.97
2018-09-12T07:38:07.135Z,17.17
2018-09-12T07:40:43.749Z,10.25
2018-09-12T07:43:16.259Z,10.72
2018-09-12T07:45:55.967Z,14.05
2018-09-12T07:48:29.634Z,11.95
2018-09-12T07:51:00.721Z,17.45
2018-09-12T07:53:31.792Z,14.13
2018-09-12T07:56:03.316Z,16.32
2018-09-12T07:58:35.265Z,7.87
2018-09-12T08:01:06.388Z,8.05
2018-09-12T08:06:38.692Z,9.80
2018-09-12T08:09:13.027Z,9.10
2018-09-12T08:18:41.674Z,10.32
2018-09-12T08:24:51.899Z,13.35
2018-09-12T08:27:23.175Z,10.30
2018-09-12T08:29:53.334Z,10.72
2018-09-12T08:32:23.557Z,9.40
2018-09-12T08:34:54.541Z,6.22
2018-09-12T08:37:29.004Z,10.30
2018-09-12T08:39:59.386Z,3.62
2018-09-12T08:42:29.482Z,5.60
2018-09-12T08:44:59.667Z,6.65
2018-09-12T08:47:30.165Z,13.80
2018-09-12T08:50:01.351Z,4.50
2018-09-12T08:52:32.627Z,10.65
2018-09-12T08:55:06.077Z,7.72
2018-09-12T08:57:36.610Z,5.35
2018-09-12T09:03:09.455Z,7.53
2018-09-12T09:08:42.470Z,6.30
2018-09-12T09:11:20.851Z,10.82
2018-09-12T09:16:42.801Z,6.65
2018-09-12T09:19:14.635Z,5.37
2018-09-12T09:21:49.500Z,8.35
2018-09-12T09:26:58.104Z,7.65
2018-09-12T09:29:33.846Z,8.88
2018-09-12T09:32:08.065Z,4.97
2018-09-12T09:34:43.760Z,7.72
2018-09-12T09:37:27.569Z,7.10
2018-09-12T09:40:03.209Z,6.47
2018-09-12T09:45:39.145Z,8.08
2018-09-12T09:48:21.660Z,6.70
2018-09-12T09:50:54.160Z,10.55
2018-09-12T09:53:25.271Z,7.75
2018-09-12T09:55:57.922Z,10.20
2018-09-12T09:58:29.459Z,9.35
2018-09-12T10:01:05.296Z,9.30
2018-09-12T10:06:25.702Z,12.10
2018-09-12T10:08:58.186Z,9.65
2018-09-12T10:11:29.005Z,8.38
2018-09-12T10:14:06.586Z,16.60
2018-09-12T10:16:38.652Z,7.62
2018-09-12T10:19:09.809Z,8.25
2018-09-12T10:21:41.245Z,10.13
2018-09-12T10:29:19.084Z,8.48
2018-09-12T10:31:49.694Z,8.55
2018-09-12T10:34:20.764Z,7.12
2018-09-12T10:36:51.473Z,6.37
2018-09-12T10:39:22.116Z,4.80
2018-09-12T10:41:53.898Z,5.03
2018-09-12T10:56:43.827Z,5.47
2018-09-12T10:59:13.961Z,5.37
2018-09-12T11:01:43.817Z,4.85
2018-09-12T11:04:15.626Z,3.25
2018-09-12T11:06:45.972Z,6.10
2018-09-12T11:09:17.502Z,3.30
2018-09-12T11:11:47.522Z,6.37
2018-09-12T11:14:17.988Z,4.00
2018-09-12T11:16:48.253Z,3.83
2018-09-12T11:19:18.300Z,5.95
2018-09-12T11:21:48.859Z,6.00
2018-09-12T11:24:19.726Z,3.30
2018-09-12T11:26:51.180Z,4.80
2018-09-12T11:29:21.437Z,5.55
2018-09-12T11:32:02.215Z,3.92
2018-09-12T11:34:36.176Z,3.50
2018-09-12T11:40:05.459Z,2.93
2018-09-12T11:42:38.589Z,3.02
2018-09-12T11:45:08.916Z,5.25
2018-09-12T11:47:39.678Z,5.17
2018-09-12T11:51:43.574Z,3.62
2018-09-12T11:54:13.866Z,5.67
2018-09-12T11:56:45.022Z,3.80
2018-09-12T11:59:15.057Z,5.72
2018-09-12T12:01:45.374Z,4.22
2018-09-12T12:04:16.626Z,3.90
2018-09-12T12:06:49.010Z,3.80
2018-09-12T12:09:19.141Z,4.40
2018-09-12T12:11:49.215Z,6.12
2018-09-12T12:14:20.384Z,2.85
2018-09-12T12:17:04.439Z,3.08
2018-09-12T12:19:34.750Z,3.45
2018-09-12T12:22:04.863Z,2.95
2018-09-12T12:24:35.087Z,2.92
2018-09-12T12:27:07.210Z,6.58
2018-09-12T12:29:38.805Z,3.08
2018-09-12T12:32:09.439Z,2.40
2018-09-12T12:34:42.113Z,3.62
2018-09-12T12:37:14.491Z,3.65
2018-09-12T12:39:44.539Z,2.20
2018-09-12T12:42:15.769Z,4.92
2018-09-12T12:44:46.598Z,4.87
2018-09-12T12:47:16.711Z,2.83
2018-09-12T12:49:47.483Z,2.33
2018-09-12T12:52:17.787Z,3.58
2018-09-12T12:54:47.982Z,3.90
2018-09-12T12:57:19.627Z,2.37
2018-09-12T12:59:50.851Z,2.50
2018-09-12T13:02:21.210Z,1.67
2018-09-12T13:04:52.046Z,2.47
2018-09-12T13:07:22.597Z,2.62
2018-09-12T13:09:52.472Z,6.05
2018-09-12T13:14:59.517Z,2.77
2018-09-12T13:17:30.235Z,6.15
2018-09-12T13:20:02.104Z,2.55
2018-09-12T13:22:33.724Z,3.17
2018-09-12T13:25:03.456Z,3.63
2018-09-12T13:27:33.233Z,2.65
2018-09-12T13:30:04.255Z,4.72
2018-09-12T13:32:41.966Z,2.25
2018-09-12T13:35:14.968Z,1.77
2018-09-12T13:37:44.754Z,4.67
2018-09-12T13:40:15.000Z,4.42
2018-09-12T13:42:44.813Z,2.52
2018-09-12T13:45:14.654Z,1.20
2018-09-12T13:47:45.151Z,1.20
2018-09-12T13:50:18.173Z,3.25
2018-09-12T13:52:50.279Z,3.15
2018-09-12T13:55:21.285Z,0.60
2018-09-12T13:57:53.517Z,1.67
2018-09-12T14:00:24.448Z,1.25
2018-09-12T14:02:59.279Z,3.85
2018-09-12T14:05:29.758Z,6.25
2018-09-12T14:08:01.205Z,3.52
2018-09-12T14:10:32.813Z,2.37
2018-09-12T14:13:04.669Z,3.42
2018-09-12T14:15:35.218Z,4.75
2018-09-12T14:18:05.323Z,5.28
2018-09-12T14:20:37.188Z,2.65
2018-09-12T14:23:12.837Z,2.67
2018-09-12T14:25:46.114Z,1.50
2018-09-12T14:28:16.627Z,2.80
2018-09-12T14:30:48.383Z,2.52
2018-09-12T14:33:18.643Z,4.15
2018-09-12T14:35:49.618Z,2.33
2018-09-12T14:38:27.462Z,1.12
2018-09-12T14:40:57.783Z,1.85
2018-09-12T14:43:28.486Z,2.83
2018-09-12T14:45:59.994Z,3.58
2018-09-12T14:48:30.244Z,4.40
2018-09-12T14:51:04.223Z,3.83
2018-09-12T14:53:34.814Z,3.98
2018-09-12T14:56:06.944Z,3.12
2018-09-12T14:58:37.271Z,11.35
2018-09-12T15:01:07.482Z,1.15
2018-09-12T15:03:42.496Z,3.52
2018-09-12T15:06:13.779Z,3.25
2018-09-12T15:08:43.777Z,3.02
2018-09-12T15:11:13.902Z,3.02
2018-09-12T15:13:44.310Z,4.20
2018-09-12T15:16:14.949Z,7.20
2018-09-12T15:18:48.069Z,2.92
2018-09-12T15:21:18.324Z,2.85
2018-09-12T15:23:48.260Z,4.87
2018-09-12T15:26:18.153Z,5.67
2018-09-12T15:28:48.612Z,12.80
2018-09-12T15:31:18.914Z,5.42
2018-09-12T15:33:48.923Z,2.92
2018-09-12T15:36:18.879Z,3.77
2018-09-12T15:38:49.682Z,3.75
2018-09-12T15:41:19.797Z,3.50
2018-09-12T15:43:53.321Z,6.15
2018-09-12T15:46:26.113Z,4.20
2018-09-12T15:48:56.401Z,4.72
2018-09-12T15:51:26.726Z,5.25
2018-09-12T15:53:56.631Z,6.90
2018-09-12T15:56:27.257Z,2.90
2018-09-12T15:59:00.225Z,5.20
2018-09-12T16:01:30.793Z,4.12
2018-09-12T16:04:00.922Z,5.75
2018-09-12T16:06:31.967Z,5.55
2018-09-12T16:09:09.542Z,3.52
2018-09-12T16:11:43.553Z,5.30
2018-09-12T16:14:16.341Z,3.75
2018-09-12T16:16:46.827Z,3.37
2018-09-12T16:19:19.580Z,4.58
2018-09-12T16:24:34.941Z,3.55
2018-09-12T16:27:07.040Z,4.60
2018-09-12T16:29:39.996Z,2.55
2018-09-12T16:32:11.112Z,6.35
2018-09-12T16:34:41.945Z,5.80
2018-09-12T16:37:12.017Z,5.58
2018-09-12T16:39:43.709Z,5.05
2018-09-12T16:42:13.701Z,5.05
2018-09-12T16:44:46.011Z,5.17
2018-09-12T16:47:17.328Z,9.80
2018-09-12T16:49:47.943Z,6.17
2018-09-12T16:52:18.210Z,8.00
2018-09-12T16:54:51.132Z,3.70
2018-09-12T16:57:19.669Z,5.60
2018-09-12T16:59:50.221Z,4.08
2018-09-12T17:02:20.278Z,11.38
2018-09-12T17:04:50.734Z,6.22
2018-09-12T17:07:22.034Z,5.35
2018-09-12T17:09:52.480Z,4.17
2018-09-12T17:12:22.655Z,6.90
2018-09-12T17:14:52.769Z,6.85
2018-09-12T17:17:23.952Z,6.90
2018-09-12T17:19:54.853Z,3.90
2018-09-12T17:22:24.888Z,6.45
2018-09-12T17:24:55.970Z,8.40
2018-09-12T17:27:25.899Z,9.53
2018-09-12T17:29:55.954Z,5.45
2018-09-12T17:32:26.631Z,6.58
2018-09-12T17:34:57.936Z,11.83
2018-09-12T17:37:27.995Z,5.90
2018-09-12T17:40:02.498Z,4.25
2018-09-12T17:42:34.211Z,5.97
2018-09-12T17:45:05.416Z,4.50
2018-09-12T17:47:35.330Z,7.25
2018-09-12T17:50:05.596Z,4.72
2018-09-12T17:52:36.227Z,5.83
2018-09-12T17:55:06.520Z,6.17
2018-09-12T17:57:36.543Z,4.72
2018-09-12T18:00:07.361Z,4.92
2018-09-12T18:02:37.385Z,3.92
2018-09-12T18:05:07.492Z,4.72
2018-09-12T18:07:37.343Z,6.95
2018-09-12T18:10:07.680Z,6.50
2018-09-12T18:12:37.551Z,5.78
2018-09-12T18:15:07.496Z,3.70
2018-09-12T18:17:42.191Z,4.75
2018-09-12T18:20:11.932Z,8.13
2018-09-12T18:22:41.968Z,5.28
2018-09-12T18:25:12.170Z,5.15
2018-09-12T18:27:42.080Z,4.12
2018-09-12T18:30:13.508Z,5.97
2018-09-12T18:32:43.452Z,5.25
2018-09-12T18:35:14.099Z,6.62
2018-09-12T18:37:44.431Z,5.55
2018-09-12T18:40:14.465Z,5.37
2018-09-12T18:42:45.496Z,6.65
2018-09-12T18:45:17.782Z,3.67
2018-09-12T18:47:47.853Z,7.60
2018-09-12T18:50:18.898Z,7.28
2018-09-12T18:52:49.218Z,5.10
2018-09-12T18:55:20.670Z,3.75
2018-09-12T18:57:50.985Z,6.12
2018-09-12T19:00:21.422Z,3.42
2018-09-12T19:02:51.872Z,4.65
2018-09-12T19:05:21.860Z,4.60
2018-09-12T19:07:59.164Z,8.05
2018-09-12T19:10:30.251Z,3.77
2018-09-12T19:13:01.836Z,5.08
2018-09-12T19:15:31.647Z,4.58
2018-09-12T19:18:03.081Z,5.75
2018-09-12T19:20:33.328Z,4.90
2018-09-12T19:23:03.746Z,6.25
2018-09-12T19:25:34.183Z,5.25
2018-09-12T19:28:05.775Z,4.62
2018-09-12T19:30:35.864Z,6.78
2018-09-12T19:33:07.098Z,4.30
2018-09-12T19:35:37.236Z,8.13
2018-09-12T19:38:07.335Z,5.70
2018-09-12T19:40:37.252Z,6.60
2018-09-12T19:45:49.883Z,5.95
2018-09-12T19:48:25.125Z,6.90
2018-09-12T19:50:58.134Z,6.00
2018-09-12T19:53:28.072Z,4.97
2018-09-12T19:55:58.107Z,5.50
2018-09-12T19:58:27.978Z,10.93
2018-09-12T20:00:59.626Z,6.85
2018-09-12T20:03:30.563Z,9.53
2018-09-12T20:06:00.681Z,5.20
2018-09-12T20:08:30.837Z,8.43
2018-09-12T20:11:03.998Z,7.33
2018-09-12T20:13:35.414Z,6.67
2018-09-12T20:16:07.883Z,6.72
2018-09-12T20:18:38.110Z,5.97
2018-09-12T20:21:08.091Z,4.92
2018-09-12T20:23:37.975Z,6.08
2018-09-12T20:26:08.318Z,6.42
2018-09-12T20:28:43.858Z,6.45
2018-09-12T20:31:13.873Z,9.08
2018-09-12T20:33:44.025Z,5.72
2018-09-12T20:36:17.376Z,4.97
2018-09-12T20:38:50.873Z,6.35
2018-09-12T20:41:23.114Z,6.62
2018-09-12T20:43:53.249Z,8.78
2018-09-12T20:46:25.051Z,8.40
2018-09-12T20:48:55.781Z,5.03
2018-09-12T20:51:28.109Z,6.55
2018-09-12T20:53:58.029Z,5.12
2018-09-12T20:56:28.496Z,5.97
2018-09-12T20:59:00.943Z,7.65
2018-09-12T21:01:32.757Z,6.33
2018-09-12T21:04:03.441Z,9.60
2018-09-12T21:06:33.388Z,7.65
2018-09-12T21:09:05.086Z,8.15
2018-09-12T21:11:36.883Z,6.85
2018-09-12T21:14:07.059Z,8.43
2018-09-12T21:16:37.226Z,6.42
2018-09-12T21:19:09.737Z,8.25
2018-09-12T21:21:41.467Z,6.28
2018-09-12T21:24:11.824Z,10.43
2018-09-12T21:26:44.461Z,6.65
2018-09-12T21:29:15.511Z,4.65
2018-09-12T21:31:46.188Z,7.33
2018-09-12T21:34:16.508Z,4.53
2018-09-12T21:36:47.807Z,8.43
2018-09-12T21:39:18.797Z,8.25
2018-09-12T21:41:49.692Z,7.87
2018-09-12T21:44:19.914Z,6.28
2018-09-12T22:00:22.890Z,6.45
2018-09-12T22:02:52.804Z,6.85
2018-09-12T22:05:22.976Z,8.18
2018-09-12T22:07:53.227Z,7.50
2018-09-12T22:10:24.063Z,6.00
2018-09-12T22:12:54.099Z,6.03
2018-09-12T22:15:25.224Z,10.70
2018-09-12T22:17:55.485Z,8.40
2018-09-12T22:20:25.520Z,6.30
2018-09-12T22:22:56.389Z,6.15
2018-09-12T22:25:39.397Z,8.10
2018-09-12T22:28:09.380Z,10.40
2018-09-12T22:30:41.832Z,8.75
2018-09-12T22:33:12.270Z,6.17
2018-09-12T22:35:42.647Z,7.45
2018-09-12T22:38:13.027Z,6.05
2018-09-12T22:40:43.079Z,12.65
2018-09-12T22:43:13.791Z,9.78
2018-09-12T22:45:44.761Z,5.97
2018-09-12T22:49:52.330Z,8.98
2018-09-12T22:52:24.567Z,6.15
2018-09-12T22:54:54.547Z,8.10
2018-09-12T22:57:38.355Z,7.62
2018-09-12T23:00:09.285Z,5.45
2018-09-12T23:02:39.407Z,7.25
2018-09-12T23:05:11.363Z,8.73
2018-09-12T23:07:43.228Z,8.43
2018-09-12T23:10:14.403Z,11.15
2018-09-12T23:12:44.477Z,12.47
2018-09-12T23:15:14.514Z,6.62
2018-09-12T23:17:46.407Z,8.38
2018-09-12T23:20:19.301Z,7.30
2018-09-12T23:22:49.277Z,9.30
2018-09-12T23:25:19.803Z,6.95
2018-09-12T23:27:50.215Z,8.78
2018-09-12T23:33:13.151Z,8.83
2018-09-12T23:35:43.411Z,10.95
2018-09-12T23:40:55.936Z,6.97
2018-09-12T23:43:30.604Z,8.80
2018-09-12T23:46:00.990Z,9.83
2018-09-12T23:48:32.620Z,9.88
2018-09-12T23:51:02.693Z,10.80
2018-09-12T23:53:32.775Z,8.60
2018-09-12T23:56:02.866Z,11.70
2018-09-12T23:58:32.936Z,9.18
